Aviation Digital Data Service (ADDS)

Output produced by METARs form (2346 UTC 02 September 2014)
found at http://aviationweather.gov/adds/metars/
 
KAEX 022253Z AUTO 00000KT 10SM CLR 24/23 A2999 RMK AO2 LTG DSNT E-SW SLP158 T02440228